sensor_id;sensor_type;location;lat;lon;timestamp;temperature;humidity
21169;DHT22;10742;51.816;8.662;2023-04-03T00:02:42;7.00;84.20
21169;DHT22;10742;51.816;8.662;2023-04-03T00:05:45;7.00;84.20
21169;DHT22;10742;51.816;8.662;2023-04-03T00:08:49;7.00;84.40
21169;DHT22;10742;51.816;8.662;2023-04-03T00:11:51;7.00;84.40
21169;DHT22;10742;51.816;8.662;2023-04-03T00:14:53;6.90;84.40
21169;DHT22;10742;51.816;8.662;2023-04-03T00:17:56;6.90;84.50
21169;DHT22;10742;51.816;8.662;2023-04-03T00:20:59;6.90;84.50
21169;DHT22;10742;51.816;8.662;2023-04-03T00:24:01;6.90;84.50
21169;DHT22;10742;51.816;8.662;2023-04-03T00:27:04;6.90;84.50
21169;DHT22;10742;51.816;8.662;2023-04-03T00:30:07;6.90;84.50
21169;DHT22;10742;51.816;8.662;2023-04-03T00:33:13;7.00;84.50
21169;DHT22;10742;51.816;8.662;2023-04-03T00:36:16;7.00;84.40
21169;DHT22;10742;51.816;8.662;2023-04-03T00:39:18;7.00;84.40
21169;DHT22;10742;51.816;8.662;2023-04-03T00:42:21;7.00;84.40
21169;DHT22;10742;51.816;8.662;2023-04-03T00:48:41;6.90;84.40
21169;DHT22;10742;51.816;8.662;2023-04-03T00:51:44;6.90;84.40
21169;DHT22;10742;51.816;8.662;2023-04-03T00:54:49;6.90;84.30
21169;DHT22;10742;51.816;8.662;2023-04-03T00:57:53;6.80;84.40
21169;DHT22;10742;51.816;8.662;2023-04-03T01:00:58;6.80;84.50
21169;DHT22;10742;51.816;8.662;2023-04-03T01:04:05;6.80;84.60
21169;DHT22;10742;51.816;8.662;2023-04-03T01:07:32;6.80;84.70
21169;DHT22;10742;51.816;8.662;2023-04-03T01:10:33;6.80;84.70
21169;DHT22;10742;51.816;8.662;2023-04-03T01:13:35;6.80;84.70
21169;DHT22;10742;51.816;8.662;2023-04-03T01:16:40;6.70;84.70
21169;DHT22;10742;51.816;8.662;2023-04-03T01:19:45;6.70;84.70
21169;DHT22;10742;51.816;8.662;2023-04-03T01:26:13;6.70;84.80
21169;DHT22;10742;51.816;8.662;2023-04-03T01:29:16;6.70;84.70
21169;DHT22;10742;51.816;8.662;2023-04-03T01:32:18;6.70;84.70
21169;DHT22;10742;51.816;8.662;2023-04-03T01:35:21;6.70;84.60
21169;DHT22;10742;51.816;8.662;2023-04-03T01:38:23;6.70;84.60
21169;DHT22;10742;51.816;8.662;2023-04-03T01:41:26;6.60;84.60
21169;DHT22;10742;51.816;8.662;2023-04-03T01:44:34;6.60;84.70
21169;DHT22;10742;51.816;8.662;2023-04-03T01:47:37;6.60;84.70
21169;DHT22;10742;51.816;8.662;2023-04-03T01:50:40;6.50;84.60
21169;DHT22;10742;51.816;8.662;2023-04-03T01:53:43;6.50;84.70
21169;DHT22;10742;51.816;8.662;2023-04-03T01:56:45;6.50;84.70
21169;DHT22;10742;51.816;8.662;2023-04-03T01:59:48;6.40;84.70
21169;DHT22;10742;51.816;8.662;2023-04-03T02:02:51;6.40;85.20
21169;DHT22;10742;51.816;8.662;2023-04-03T02:05:54;6.40;84.80
21169;DHT22;10742;51.816;8.662;2023-04-03T02:08:56;6.30;84.80
21169;DHT22;10742;51.816;8.662;2023-04-03T02:11:59;6.30;84.80
21169;DHT22;10742;51.816;8.662;2023-04-03T02:15:01;6.30;84.80
21169;DHT22;10742;51.816;8.662;2023-04-03T02:18:03;6.30;84.80
21169;DHT22;10742;51.816;8.662;2023-04-03T02:21:06;6.20;84.70
21169;DHT22;10742;51.816;8.662;2023-04-03T02:24:08;6.20;84.80
21169;DHT22;10742;51.816;8.662;2023-04-03T02:27:10;6.10;84.90
21169;DHT22;10742;51.816;8.662;2023-04-03T02:30:13;6.00;85.00
21169;DHT22;10742;51.816;8.662;2023-04-03T02:33:16;6.00;85.10
21169;DHT22;10742;51.816;8.662;2023-04-03T02:36:19;5.90;85.30
21169;DHT22;10742;51.816;8.662;2023-04-03T02:39:27;5.80;85.30
21169;DHT22;10742;51.816;8.662;2023-04-03T02:42:31;5.70;85.40
21169;DHT22;10742;51.816;8.662;2023-04-03T02:45:33;5.70;85.60
21169;DHT22;10742;51.816;8.662;2023-04-03T02:48:36;5.60;85.70
21169;DHT22;10742;51.816;8.662;2023-04-03T02:51:38;5.50;85.90
21169;DHT22;10742;51.816;8.662;2023-04-03T02:54:41;5.40;86.00
21169;DHT22;10742;51.816;8.662;2023-04-03T02:57:45;5.30;86.20
21169;DHT22;10742;51.816;8.662;2023-04-03T03:00:48;5.20;86.30
21169;DHT22;10742;51.816;8.662;2023-04-03T03:03:50;5.20;86.50
21169;DHT22;10742;51.816;8.662;2023-04-03T03:06:53;5.10;86.60
21169;DHT22;10742;51.816;8.662;2023-04-03T03:09:55;5.10;86.80
21169;DHT22;10742;51.816;8.662;2023-04-03T03:12:57;5.10;86.80
21169;DHT22;10742;51.816;8.662;2023-04-03T03:16:00;5.00;86.90
21169;DHT22;10742;51.816;8.662;2023-04-03T03:19:02;4.90;86.90
21169;DHT22;10742;51.816;8.662;2023-04-03T03:22:05;4.90;87.00
21169;DHT22;10742;51.816;8.662;2023-04-03T03:25:07;4.90;87.10
21169;DHT22;10742;51.816;8.662;2023-04-03T03:28:11;4.80;87.20
21169;DHT22;10742;51.816;8.662;2023-04-03T03:31:13;4.80;87.30
21169;DHT22;10742;51.816;8.662;2023-04-03T03:34:17;4.80;87.30
21169;DHT22;10742;51.816;8.662;2023-04-03T03:37:20;4.80;87.30
21169;DHT22;10742;51.816;8.662;2023-04-03T03:40:22;4.70;87.30
21169;DHT22;10742;51.816;8.662;2023-04-03T03:43:24;4.70;87.30
21169;DHT22;10742;51.816;8.662;2023-04-03T03:46:28;4.80;87.50
21169;DHT22;10742;51.816;8.662;2023-04-03T03:49:31;4.70;87.50
21169;DHT22;10742;51.816;8.662;2023-04-03T03:52:33;4.70;87.50
21169;DHT22;10742;51.816;8.662;2023-04-03T03:55:35;4.70;87.50
21169;DHT22;10742;51.816;8.662;2023-04-03T03:58:38;4.70;87.50
21169;DHT22;10742;51.816;8.662;2023-04-03T04:01:41;4.70;87.50
21169;DHT22;10742;51.816;8.662;2023-04-03T04:04:43;4.70;87.50
21169;DHT22;10742;51.816;8.662;2023-04-03T04:07:46;4.70;87.40
21169;DHT22;10742;51.816;8.662;2023-04-03T04:10:48;4.60;87.40
21169;DHT22;10742;51.816;8.662;2023-04-03T04:13:52;4.60;87.40
21169;DHT22;10742;51.816;8.662;2023-04-03T04:16:59;4.50;87.40
21169;DHT22;10742;51.816;8.662;2023-04-03T04:20:03;4.50;87.50
21169;DHT22;10742;51.816;8.662;2023-04-03T04:23:08;4.40;87.60
21169;DHT22;10742;51.816;8.662;2023-04-03T04:26:11;4.40;88.50
21169;DHT22;10742;51.816;8.662;2023-04-03T04:29:15;4.30;87.90
21169;DHT22;10742;51.816;8.662;2023-04-03T04:32:19;4.30;88.10
21169;DHT22;10742;51.816;8.662;2023-04-03T04:35:23;4.30;88.10
21169;DHT22;10742;51.816;8.662;2023-04-03T04:38:26;4.20;88.20
21169;DHT22;10742;51.816;8.662;2023-04-03T04:41:29;4.20;88.20
21169;DHT22;10742;51.816;8.662;2023-04-03T04:44:32;4.20;88.40
21169;DHT22;10742;51.816;8.662;2023-04-03T04:47:35;4.10;88.40
21169;DHT22;10742;51.816;8.662;2023-04-03T04:50:38;4.10;88.50
21169;DHT22;10742;51.816;8.662;2023-04-03T04:53:40;4.10;88.60
21169;DHT22;10742;51.816;8.662;2023-04-03T04:56:45;4.10;88.70
21169;DHT22;10742;51.816;8.662;2023-04-03T04:59:47;4.10;88.80
21169;DHT22;10742;51.816;8.662;2023-04-03T05:02:50;4.10;88.90
21169;DHT22;10742;51.816;8.662;2023-04-03T05:05:54;4.10;89.00
21169;DHT22;10742;51.816;8.662;2023-04-03T05:08:56;4.10;89.00
21169;DHT22;10742;51.816;8.662;2023-04-03T05:11:59;4.10;89.00
21169;DHT22;10742;51.816;8.662;2023-04-03T05:15:06;4.20;89.10
21169;DHT22;10742;51.816;8.662;2023-04-03T05:18:09;4.20;89.00
21169;DHT22;10742;51.816;8.662;2023-04-03T05:21:12;4.20;89.00
21169;DHT22;10742;51.816;8.662;2023-04-03T05:24:15;4.20;89.10
21169;DHT22;10742;51.816;8.662;2023-04-03T05:27:18;4.30;89.00
21169;DHT22;10742;51.816;8.662;2023-04-03T05:30:26;4.20;88.80
21169;DHT22;10742;51.816;8.662;2023-04-03T05:33:28;4.20;88.80
21169;DHT22;10742;51.816;8.662;2023-04-03T05:36:33;4.20;88.90
21169;DHT22;10742;51.816;8.662;2023-04-03T05:39:39;4.30;89.10
21169;DHT22;10742;51.816;8.662;2023-04-03T05:42:44;4.20;89.00
21169;DHT22;10742;51.816;8.662;2023-04-03T05:45:47;4.20;89.50
21169;DHT22;10742;51.816;8.662;2023-04-03T05:48:50;4.20;89.60
21169;DHT22;10742;51.816;8.662;2023-04-03T05:51:56;4.20;89.50
21169;DHT22;10742;51.816;8.662;2023-04-03T05:55:02;4.20;89.40
21169;DHT22;10742;51.816;8.662;2023-04-03T05:58:07;4.30;89.50
21169;DHT22;10742;51.816;8.662;2023-04-03T06:01:11;4.20;89.50
21169;DHT22;10742;51.816;8.662;2023-04-03T06:04:14;4.30;89.70
21169;DHT22;10742;51.816;8.662;2023-04-03T06:07:19;4.20;89.70
21169;DHT22;10742;51.816;8.662;2023-04-03T06:10:24;4.30;90.00
21169;DHT22;10742;51.816;8.662;2023-04-03T06:13:26;4.30;90.10
21169;DHT22;10742;51.816;8.662;2023-04-03T06:16:29;4.40;90.40
21169;DHT22;10742;51.816;8.662;2023-04-03T06:19:31;4.50;90.50
21169;DHT22;10742;51.816;8.662;2023-04-03T06:22:35;4.60;90.60
21169;DHT22;10742;51.816;8.662;2023-04-03T06:25:38;4.70;91.20
21169;DHT22;10742;51.816;8.662;2023-04-03T06:28:40;5.00;91.80
21169;DHT22;10742;51.816;8.662;2023-04-03T06:31:43;5.30;92.20
21169;DHT22;10742;51.816;8.662;2023-04-03T06:34:45;5.60;92.40
21169;DHT22;10742;51.816;8.662;2023-04-03T06:37:48;5.90;92.40
21169;DHT22;10742;51.816;8.662;2023-04-03T06:40:51;6.20;92.30
21169;DHT22;10742;51.816;8.662;2023-04-03T06:43:53;6.50;91.90
21169;DHT22;10742;51.816;8.662;2023-04-03T06:46:58;6.80;91.50
21169;DHT22;10742;51.816;8.662;2023-04-03T06:50:00;7.10;91.30
21169;DHT22;10742;51.816;8.662;2023-04-03T06:53:03;7.40;90.90
21169;DHT22;10742;51.816;8.662;2023-04-03T06:56:05;7.60;90.50
21169;DHT22;10742;51.816;8.662;2023-04-03T06:59:10;7.80;90.00
21169;DHT22;10742;51.816;8.662;2023-04-03T07:02:12;8.00;89.10
21169;DHT22;10742;51.816;8.662;2023-04-03T07:05:15;8.10;88.60
21169;DHT22;10742;51.816;8.662;2023-04-03T07:08:17;8.20;88.10
21169;DHT22;10742;51.816;8.662;2023-04-03T07:11:19;8.30;87.70
21169;DHT22;10742;51.816;8.662;2023-04-03T07:14:22;8.40;87.30
21169;DHT22;10742;51.816;8.662;2023-04-03T07:17:24;8.60;87.10
21169;DHT22;10742;51.816;8.662;2023-04-03T07:20:27;8.70;86.60
21169;DHT22;10742;51.816;8.662;2023-04-03T07:23:30;8.90;85.90
21169;DHT22;10742;51.816;8.662;2023-04-03T07:26:32;9.00;84.80
21169;DHT22;10742;51.816;8.662;2023-04-03T07:29:35;9.00;84.50
21169;DHT22;10742;51.816;8.662;2023-04-03T07:32:37;9.00;84.20
21169;DHT22;10742;51.816;8.662;2023-04-03T07:35:40;9.10;84.10
21169;DHT22;10742;51.816;8.662;2023-04-03T07:38:43;9.20;83.90
21169;DHT22;10742;51.816;8.662;2023-04-03T07:41:45;9.30;83.90
21169;DHT22;10742;51.816;8.662;2023-04-03T07:44:47;9.40;83.40
21169;DHT22;10742;51.816;8.662;2023-04-03T07:47:50;9.50;83.00
21169;DHT22;10742;51.816;8.662;2023-04-03T07:50:53;9.70;82.70
21169;DHT22;10742;51.816;8.662;2023-04-03T07:53:55;9.80;82.20
21169;DHT22;10742;51.816;8.662;2023-04-03T07:56:58;9.90;81.10
21169;DHT22;10742;51.816;8.662;2023-04-03T08:00:01;10.00;80.30
21169;DHT22;10742;51.816;8.662;2023-04-03T08:03:13;10.10;79.60
21169;DHT22;10742;51.816;8.662;2023-04-03T08:06:15;10.10;78.00
21169;DHT22;10742;51.816;8.662;2023-04-03T08:09:19;10.20;77.80
21169;DHT22;10742;51.816;8.662;2023-04-03T08:12:21;10.20;77.60
21169;DHT22;10742;51.816;8.662;2023-04-03T08:15:24;10.30;77.00
21169;DHT22;10742;51.816;8.662;2023-04-03T08:18:26;10.30;76.60
21169;DHT22;10742;51.816;8.662;2023-04-03T08:21:29;10.30;75.00
21169;DHT22;10742;51.816;8.662;2023-04-03T08:24:33;10.30;73.50
21169;DHT22;10742;51.816;8.662;2023-04-03T08:27:36;10.30;73.50
21169;DHT22;10742;51.816;8.662;2023-04-03T08:30:40;10.20;74.30
21169;DHT22;10742;51.816;8.662;2023-04-03T08:33:43;10.30;73.90
21169;DHT22;10742;51.816;8.662;2023-04-03T08:36:45;10.30;73.00
21169;DHT22;10742;51.816;8.662;2023-04-03T08:39:48;10.30;69.50
21169;DHT22;10742;51.816;8.662;2023-04-03T08:43:00;10.20;69.30
21169;DHT22;10742;51.816;8.662;2023-04-03T08:46:05;10.00;70.40
21169;DHT22;10742;51.816;8.662;2023-04-03T08:49:50;9.90;70.90
21169;DHT22;10742;51.816;8.662;2023-04-03T08:52:56;9.90;70.60
21169;DHT22;10742;51.816;8.662;2023-04-03T08:56:04;10.00;71.80
21169;DHT22;10742;51.816;8.662;2023-04-03T08:59:11;10.20;71.30
21169;DHT22;10742;51.816;8.662;2023-04-03T09:02:30;10.30;70.60
21169;DHT22;10742;51.816;8.662;2023-04-03T09:12:38;10.70;70.60
21169;DHT22;10742;51.816;8.662;2023-04-03T09:15:41;10.80;70.50
21169;DHT22;10742;51.816;8.662;2023-04-03T09:18:48;10.90;71.40
21169;DHT22;10742;51.816;8.662;2023-04-03T09:21:55;11.10;70.60
21169;DHT22;10742;51.816;8.662;2023-04-03T09:25:17;11.20;68.40
21169;DHT22;10742;51.816;8.662;2023-04-03T09:28:20;11.20;66.20
21169;DHT22;10742;51.816;8.662;2023-04-03T09:31:25;11.30;67.80
21169;DHT22;10742;51.816;8.662;2023-04-03T09:34:34;11.30;66.10
21169;DHT22;10742;51.816;8.662;2023-04-03T09:37:41;11.30;65.10
21169;DHT22;10742;51.816;8.662;2023-04-03T09:41:02;11.30;64.40
21169;DHT22;10742;51.816;8.662;2023-04-03T09:44:21;11.30;64.90
21169;DHT22;10742;51.816;8.662;2023-04-03T09:47:29;11.30;63.70
21169;DHT22;10742;51.816;8.662;2023-04-03T09:50:34;11.30;65.40
21169;DHT22;10742;51.816;8.662;2023-04-03T09:53:43;11.40;65.50
21169;DHT22;10742;51.816;8.662;2023-04-03T09:56:50;11.40;65.00
21169;DHT22;10742;51.816;8.662;2023-04-03T10:00:00;11.50;64.20
21169;DHT22;10742;51.816;8.662;2023-04-03T10:03:04;11.50;63.50
21169;DHT22;10742;51.816;8.662;2023-04-03T10:06:22;11.50;63.40
21169;DHT22;10742;51.816;8.662;2023-04-03T10:09:30;11.40;62.10
21169;DHT22;10742;51.816;8.662;2023-04-03T10:12:33;11.50;62.80
21169;DHT22;10742;51.816;8.662;2023-04-03T10:15:41;11.50;62.20
21169;DHT22;10742;51.816;8.662;2023-04-03T10:22:02;11.40;62.10
21169;DHT22;10742;51.816;8.662;2023-04-03T10:32:15;11.60;61.20
21169;DHT22;10742;51.816;8.662;2023-04-03T10:35:41;11.60;61.90
21169;DHT22;10742;51.816;8.662;2023-04-03T10:38:55;11.60;62.10
21169;DHT22;10742;51.816;8.662;2023-04-03T10:52:37;12.10;60.70
21169;DHT22;10742;51.816;8.662;2023-04-03T10:56:04;12.10;59.80
21169;DHT22;10742;51.816;8.662;2023-04-03T11:02:59;12.10;59.10
21169;DHT22;10742;51.816;8.662;2023-04-03T11:06:07;12.20;59.70
21169;DHT22;10742;51.816;8.662;2023-04-03T11:09:30;12.20;60.10
21169;DHT22;10742;51.816;8.662;2023-04-03T11:12:41;12.30;59.70
21169;DHT22;10742;51.816;8.662;2023-04-03T11:15:44;12.20;59.80
21169;DHT22;10742;51.816;8.662;2023-04-03T11:18:56;12.30;60.00
21169;DHT22;10742;51.816;8.662;2023-04-03T11:22:08;12.30;58.60
21169;DHT22;10742;51.816;8.662;2023-04-03T11:28:14;12.20;59.10
21169;DHT22;10742;51.816;8.662;2023-04-03T11:31:49;12.20;59.10
21169;DHT22;10742;51.816;8.662;2023-04-03T11:35:01;12.10;58.30
21169;DHT22;10742;51.816;8.662;2023-04-03T11:38:04;12.10;59.00
21169;DHT22;10742;51.816;8.662;2023-04-03T11:41:11;12.20;58.50
21169;DHT22;10742;51.816;8.662;2023-04-03T11:44:33;12.30;59.20
21169;DHT22;10742;51.816;8.662;2023-04-03T11:47:51;12.30;57.90
21169;DHT22;10742;51.816;8.662;2023-04-03T11:50:55;12.20;58.70
21169;DHT22;10742;51.816;8.662;2023-04-03T12:01:11;12.20;56.90
21169;DHT22;10742;51.816;8.662;2023-04-03T12:04:14;12.00;58.20
21169;DHT22;10742;51.816;8.662;2023-04-03T12:07:19;11.80;58.10
21169;DHT22;10742;51.816;8.662;2023-04-03T12:10:21;11.70;56.70
21169;DHT22;10742;51.816;8.662;2023-04-03T12:13:31;11.50;57.30
21169;DHT22;10742;51.816;8.662;2023-04-03T12:19:39;11.30;57.20
21169;DHT22;10742;51.816;8.662;2023-04-03T12:23:08;11.20;57.70
21169;DHT22;10742;51.816;8.662;2023-04-03T12:26:21;11.00;58.20
21169;DHT22;10742;51.816;8.662;2023-04-03T12:36:26;10.90;57.90
21169;DHT22;10742;51.816;8.662;2023-04-03T12:39:52;10.90;58.10
21169;DHT22;10742;51.816;8.662;2023-04-03T12:46:22;11.00;58.80
21169;DHT22;10742;51.816;8.662;2023-04-03T12:49:42;11.20;59.30
21169;DHT22;10742;51.816;8.662;2023-04-03T12:53:06;11.30;58.50
21169;DHT22;10742;51.816;8.662;2023-04-03T12:56:30;11.50;58.80
21169;DHT22;10742;51.816;8.662;2023-04-03T12:59:34;11.60;58.60
21169;DHT22;10742;51.816;8.662;2023-04-03T13:02:37;11.80;59.00
21169;DHT22;10742;51.816;8.662;2023-04-03T13:05:40;11.90;57.70
21169;DHT22;10742;51.816;8.662;2023-04-03T13:08:57;11.90;57.80
21169;DHT22;10742;51.816;8.662;2023-04-03T13:12:15;12.00;57.30
21169;DHT22;10742;51.816;8.662;2023-04-03T13:15:30;12.10;57.70
21169;DHT22;10742;51.816;8.662;2023-04-03T13:18:34;12.10;57.50
21169;DHT22;10742;51.816;8.662;2023-04-03T13:21:37;12.20;58.10
21169;DHT22;10742;51.816;8.662;2023-04-03T13:24:39;12.30;57.40
21169;DHT22;10742;51.816;8.662;2023-04-03T13:27:42;12.30;55.40
21169;DHT22;10742;51.816;8.662;2023-04-03T13:31:04;12.30;55.80
21169;DHT22;10742;51.816;8.662;2023-04-03T13:34:13;12.20;55.80
21169;DHT22;10742;51.816;8.662;2023-04-03T13:37:28;12.20;57.00
21169;DHT22;10742;51.816;8.662;2023-04-03T13:40:31;12.20;57.80
21169;DHT22;10742;51.816;8.662;2023-04-03T13:43:39;12.20;57.60
21169;DHT22;10742;51.816;8.662;2023-04-03T13:46:42;12.30;57.60
21169;DHT22;10742;51.816;8.662;2023-04-03T13:50:12;12.30;57.30
21169;DHT22;10742;51.816;8.662;2023-04-03T13:53:14;12.30;56.80
21169;DHT22;10742;51.816;8.662;2023-04-03T13:56:38;12.20;56.60
21169;DHT22;10742;51.816;8.662;2023-04-03T13:59:41;12.10;56.40
21169;DHT22;10742;51.816;8.662;2023-04-03T14:02:47;12.00;56.70
21169;DHT22;10742;51.816;8.662;2023-04-03T14:05:50;12.00;54.80
21169;DHT22;10742;51.816;8.662;2023-04-03T14:08:52;11.90;55.20
21169;DHT22;10742;51.816;8.662;2023-04-03T14:11:58;11.80;55.70
21169;DHT22;10742;51.816;8.662;2023-04-03T14:15:15;11.70;55.60
21169;DHT22;10742;51.816;8.662;2023-04-03T14:18:19;11.70;56.10
21169;DHT22;10742;51.816;8.662;2023-04-03T14:21:23;11.60;57.00
21169;DHT22;10742;51.816;8.662;2023-04-03T14:24:25;11.70;56.40
21169;DHT22;10742;51.816;8.662;2023-04-03T14:27:34;11.70;55.90
21169;DHT22;10742;51.816;8.662;2023-04-03T14:30:36;11.70;55.90
21169;DHT22;10742;51.816;8.662;2023-04-03T14:33:40;11.70;56.40
21169;DHT22;10742;51.816;8.662;2023-04-03T14:36:44;11.70;56.80
21169;DHT22;10742;51.816;8.662;2023-04-03T14:39:47;11.80;57.70
21169;DHT22;10742;51.816;8.662;2023-04-03T14:42:49;11.90;57.00
21169;DHT22;10742;51.816;8.662;2023-04-03T14:45:53;11.90;54.90
21169;DHT22;10742;51.816;8.662;2023-04-03T14:48:55;11.90;54.70
21169;DHT22;10742;51.816;8.662;2023-04-03T14:51:58;11.80;54.70
21169;DHT22;10742;51.816;8.662;2023-04-03T14:55:02;11.70;54.90
21169;DHT22;10742;51.816;8.662;2023-04-03T14:58:04;11.70;55.70
21169;DHT22;10742;51.816;8.662;2023-04-03T15:01:11;11.70;55.90
21169;DHT22;10742;51.816;8.662;2023-04-03T15:04:17;11.70;56.20
21169;DHT22;10742;51.816;8.662;2023-04-03T15:07:21;11.70;55.40
21169;DHT22;10742;51.816;8.662;2023-04-03T15:10:26;11.70;54.10
21169;DHT22;10742;51.816;8.662;2023-04-03T15:13:29;11.70;54.70
21169;DHT22;10742;51.816;8.662;2023-04-03T15:16:32;11.70;54.30
21169;DHT22;10742;51.816;8.662;2023-04-03T15:19:37;11.70;55.00
21169;DHT22;10742;51.816;8.662;2023-04-03T15:22:40;11.60;55.30
21169;DHT22;10742;51.816;8.662;2023-04-03T15:25:44;11.60;54.70
21169;DHT22;10742;51.816;8.662;2023-04-03T15:28:47;11.60;54.10
21169;DHT22;10742;51.816;8.662;2023-04-03T15:31:49;11.60;54.00
21169;DHT22;10742;51.816;8.662;2023-04-03T15:34:55;11.60;54.70
21169;DHT22;10742;51.816;8.662;2023-04-03T15:37:57;11.50;55.00
21169;DHT22;10742;51.816;8.662;2023-04-03T15:41:00;11.50;55.20
21169;DHT22;10742;51.816;8.662;2023-04-03T15:44:02;11.50;55.50
21169;DHT22;10742;51.816;8.662;2023-04-03T15:47:05;11.60;56.00
21169;DHT22;10742;51.816;8.662;2023-04-03T15:50:07;11.70;55.80
21169;DHT22;10742;51.816;8.662;2023-04-03T15:53:10;11.70;55.80
21169;DHT22;10742;51.816;8.662;2023-04-03T15:56:12;11.80;55.90
21169;DHT22;10742;51.816;8.662;2023-04-03T15:59:14;11.80;55.80
21169;DHT22;10742;51.816;8.662;2023-04-03T16:02:17;11.80;55.50
21169;DHT22;10742;51.816;8.662;2023-04-03T16:05:20;11.80;53.40
21169;DHT22;10742;51.816;8.662;2023-04-03T16:08:22;11.80;54.10
21169;DHT22;10742;51.816;8.662;2023-04-03T16:11:25;11.70;54.70
21169;DHT22;10742;51.816;8.662;2023-04-03T16:14:28;11.60;54.50
21169;DHT22;10742;51.816;8.662;2023-04-03T16:17:33;11.50;54.80
21169;DHT22;10742;51.816;8.662;2023-04-03T16:20:36;11.50;55.10
21169;DHT22;10742;51.816;8.662;2023-04-03T16:23:39;11.40;55.30
21169;DHT22;10742;51.816;8.662;2023-04-03T16:26:42;11.50;55.70
21169;DHT22;10742;51.816;8.662;2023-04-03T16:29:44;11.50;55.40
21169;DHT22;10742;51.816;8.662;2023-04-03T16:32:47;11.50;54.80
21169;DHT22;10742;51.816;8.662;2023-04-03T16:35:50;11.50;54.60
21169;DHT22;10742;51.816;8.662;2023-04-03T16:38:52;11.40;54.10
21169;DHT22;10742;51.816;8.662;2023-04-03T16:41:55;11.40;53.80
21169;DHT22;10742;51.816;8.662;2023-04-03T16:44:57;11.30;55.00
21169;DHT22;10742;51.816;8.662;2023-04-03T16:48:00;11.20;56.10
21169;DHT22;10742;51.816;8.662;2023-04-03T16:51:03;11.30;58.10
21169;DHT22;10742;51.816;8.662;2023-04-03T16:54:05;11.40;57.90
21169;DHT22;10742;51.816;8.662;2023-04-03T16:57:08;11.60;58.10
21169;DHT22;10742;51.816;8.662;2023-04-03T17:00:11;11.80;57.50
21169;DHT22;10742;51.816;8.662;2023-04-03T17:03:13;11.90;57.40
21169;DHT22;10742;51.816;8.662;2023-04-03T17:06:18;12.00;56.60
21169;DHT22;10742;51.816;8.662;2023-04-03T17:09:21;12.10;55.70
21169;DHT22;10742;51.816;8.662;2023-04-03T17:12:24;12.10;55.00
21169;DHT22;10742;51.816;8.662;2023-04-03T17:15:27;12.00;55.70
21169;DHT22;10742;51.816;8.662;2023-04-03T17:18:29;12.00;57.30
21169;DHT22;10742;51.816;8.662;2023-04-03T17:21:32;12.10;57.60
21169;DHT22;10742;51.816;8.662;2023-04-03T17:24:35;12.20;57.40
21169;DHT22;10742;51.816;8.662;2023-04-03T17:27:38;12.30;56.90
21169;DHT22;10742;51.816;8.662;2023-04-03T17:30:40;12.40;56.30
21169;DHT22;10742;51.816;8.662;2023-04-03T17:33:43;12.40;55.70
21169;DHT22;10742;51.816;8.662;2023-04-03T17:36:45;12.40;55.10
21169;DHT22;10742;51.816;8.662;2023-04-03T17:39:48;12.30;54.80
21169;DHT22;10742;51.816;8.662;2023-04-03T17:42:50;12.20;54.70
21169;DHT22;10742;51.816;8.662;2023-04-03T17:45:56;12.00;54.50
21169;DHT22;10742;51.816;8.662;2023-04-03T17:49:04;11.90;54.40
21169;DHT22;10742;51.816;8.662;2023-04-03T17:52:07;11.70;54.50
21169;DHT22;10742;51.816;8.662;2023-04-03T17:59:05;11.40;54.60
21169;DHT22;10742;51.816;8.662;2023-04-03T18:02:08;11.30;55.30
21169;DHT22;10742;51.816;8.662;2023-04-03T18:05:10;11.20;55.60
21169;DHT22;10742;51.816;8.662;2023-04-03T18:08:13;11.20;55.60
21169;DHT22;10742;51.816;8.662;2023-04-03T18:11:16;11.10;55.60
21169;DHT22;10742;51.816;8.662;2023-04-03T18:14:22;11.10;55.70
21169;DHT22;10742;51.816;8.662;2023-04-03T18:17:24;11.00;55.60
21169;DHT22;10742;51.816;8.662;2023-04-03T18:20:28;10.90;55.70
21169;DHT22;10742;51.816;8.662;2023-04-03T18:23:32;10.80;55.80
21169;DHT22;10742;51.816;8.662;2023-04-03T18:26:35;10.80;55.80
21169;DHT22;10742;51.816;8.662;2023-04-03T18:29:39;10.70;56.00
21169;DHT22;10742;51.816;8.662;2023-04-03T18:32:42;10.70;55.90
21169;DHT22;10742;51.816;8.662;2023-04-03T18:35:44;10.60;55.90
21169;DHT22;10742;51.816;8.662;2023-04-03T18:38:50;10.50;56.00
21169;DHT22;10742;51.816;8.662;2023-04-03T18:41:53;10.40;56.00
21169;DHT22;10742;51.816;8.662;2023-04-03T18:44:58;10.40;56.10
21169;DHT22;10742;51.816;8.662;2023-04-03T18:48:02;10.30;56.10
21169;DHT22;10742;51.816;8.662;2023-04-03T18:51:05;10.30;56.30
21169;DHT22;10742;51.816;8.662;2023-04-03T18:54:08;10.20;57.10
21169;DHT22;10742;51.816;8.662;2023-04-03T18:57:11;10.10;56.60
21169;DHT22;10742;51.816;8.662;2023-04-03T19:00:16;10.10;56.80
21169;DHT22;10742;51.816;8.662;2023-04-03T19:03:19;10.00;56.80
21169;DHT22;10742;51.816;8.662;2023-04-03T19:06:21;10.00;56.90
21169;DHT22;10742;51.816;8.662;2023-04-03T19:09:24;9.90;56.90
21169;DHT22;10742;51.816;8.662;2023-04-03T19:12:27;9.90;57.00
21169;DHT22;10742;51.816;8.662;2023-04-03T19:15:30;9.80;57.10
21169;DHT22;10742;51.816;8.662;2023-04-03T19:18:33;9.70;57.10
21169;DHT22;10742;51.816;8.662;2023-04-03T19:21:35;9.60;57.20
21169;DHT22;10742;51.816;8.662;2023-04-03T19:24:42;9.60;57.50
21169;DHT22;10742;51.816;8.662;2023-04-03T19:27:46;9.50;57.40
21169;DHT22;10742;51.816;8.662;2023-04-03T19:30:49;9.40;57.50
21169;DHT22;10742;51.816;8.662;2023-04-03T19:33:51;9.30;57.60
21169;DHT22;10742;51.816;8.662;2023-04-03T19:36:54;9.20;57.80
21169;DHT22;10742;51.816;8.662;2023-04-03T19:39:56;9.10;58.00
21169;DHT22;10742;51.816;8.662;2023-04-03T19:42:59;9.00;58.10
21169;DHT22;10742;51.816;8.662;2023-04-03T19:46:02;9.00;58.20
21169;DHT22;10742;51.816;8.662;2023-04-03T19:49:05;9.00;58.40
21169;DHT22;10742;51.816;8.662;2023-04-03T19:52:07;8.90;58.40
21169;DHT22;10742;51.816;8.662;2023-04-03T19:55:10;8.90;58.60
21169;DHT22;10742;51.816;8.662;2023-04-03T19:58:12;8.80;59.40
21169;DHT22;10742;51.816;8.662;2023-04-03T20:01:15;8.70;58.80
21169;DHT22;10742;51.816;8.662;2023-04-03T20:04:18;8.70;59.00
21169;DHT22;10742;51.816;8.662;2023-04-03T20:07:20;8.70;59.10
21169;DHT22;10742;51.816;8.662;2023-04-03T20:10:23;8.60;59.10
21169;DHT22;10742;51.816;8.662;2023-04-03T20:13:25;8.60;59.20
21169;DHT22;10742;51.816;8.662;2023-04-03T20:16:28;8.50;59.10
21169;DHT22;10742;51.816;8.662;2023-04-03T20:19:31;8.50;59.20
21169;DHT22;10742;51.816;8.662;2023-04-03T20:22:52;8.50;59.30
21169;DHT22;10742;51.816;8.662;2023-04-03T20:26:22;8.40;59.20
21169;DHT22;10742;51.816;8.662;2023-04-03T20:29:44;8.30;59.40
21169;DHT22;10742;51.816;8.662;2023-04-03T20:33:05;8.30;59.50
21169;DHT22;10742;51.816;8.662;2023-04-03T20:36:27;8.20;59.60
21169;DHT22;10742;51.816;8.662;2023-04-03T20:39:50;8.10;59.70
21169;DHT22;10742;51.816;8.662;2023-04-03T20:43:11;8.10;59.90
21169;DHT22;10742;51.816;8.662;2023-04-03T20:46:33;8.00;60.00